sensor_id;sensor_type;location;lat;lon;timestamp;temperature;humidity
15638;DHT22;26604;53.596;10.042;2023-12-07T00:00:39;2.00;99.90
15638;DHT22;26604;53.596;10.042;2023-12-07T00:03:06;2.00;99.90
15638;DHT22;26604;53.596;10.042;2023-12-07T00:05:34;2.00;99.90
15638;DHT22;26604;53.596;10.042;2023-12-07T00:08:01;2.00;99.90
15638;DHT22;26604;53.596;10.042;2023-12-07T00:10:28;2.00;99.90
15638;DHT22;26604;53.596;10.042;2023-12-07T00:12:55;2.00;99.90
15638;DHT22;26604;53.596;10.042;2023-12-07T00:15:22;2.00;99.90
15638;DHT22;26604;53.596;10.042;2023-12-07T00:17:49;2.10;99.90
15638;DHT22;26604;53.596;10.042;2023-12-07T00:20:16;2.00;99.90
15638;DHT22;26604;53.596;10.042;2023-12-07T00:22:44;2.00;99.90
15638;DHT22;26604;53.596;10.042;2023-12-07T00:25:11;2.00;99.90
15638;DHT22;26604;53.596;10.042;2023-12-07T00:27:38;2.00;99.90
15638;DHT22;26604;53.596;10.042;2023-12-07T00:30:06;2.00;99.90
15638;DHT22;26604;53.596;10.042;2023-12-07T00:32:34;2.00;99.90
15638;DHT22;26604;53.596;10.042;2023-12-07T00:35:01;2.00;99.90
15638;DHT22;26604;53.596;10.042;2023-12-07T00:37:28;2.00;99.90
15638;DHT22;26604;53.596;10.042;2023-12-07T00:39:58;1.90;99.90
15638;DHT22;26604;53.596;10.042;2023-12-07T00:42:25;2.00;99.90
15638;DHT22;26604;53.596;10.042;2023-12-07T00:44:52;2.80;99.90
15638;DHT22;26604;53.596;10.042;2023-12-07T00:47:19;2.00;99.90
15638;DHT22;26604;53.596;10.042;2023-12-07T00:49:46;2.00;99.90
15638;DHT22;26604;53.596;10.042;2023-12-07T00:52:13;2.00;99.90
15638;DHT22;26604;53.596;10.042;2023-12-07T00:54:40;2.00;99.90
15638;DHT22;26604;53.596;10.042;2023-12-07T00:57:10;2.00;99.90
15638;DHT22;26604;53.596;10.042;2023-12-07T00:59:37;1.90;99.90
15638;DHT22;26604;53.596;10.042;2023-12-07T01:02:03;1.90;99.90
15638;DHT22;26604;53.596;10.042;2023-12-07T01:04:31;1.90;99.90
15638;DHT22;26604;53.596;10.042;2023-12-07T01:06:58;1.90;99.90
15638;DHT22;26604;53.596;10.042;2023-12-07T01:09:25;2.00;99.90
15638;DHT22;26604;53.596;10.042;2023-12-07T01:11:52;1.90;99.90
15638;DHT22;26604;53.596;10.042;2023-12-07T01:14:22;1.90;99.90
15638;DHT22;26604;53.596;10.042;2023-12-07T01:16:48;1.90;99.90
15638;DHT22;26604;53.596;10.042;2023-12-07T01:19:15;1.90;99.90
15638;DHT22;26604;53.596;10.042;2023-12-07T01:21:42;2.00;99.90
15638;DHT22;26604;53.596;10.042;2023-12-07T01:24:09;1.90;99.90
15638;DHT22;26604;53.596;10.042;2023-12-07T01:26:36;1.90;99.90
15638;DHT22;26604;53.596;10.042;2023-12-07T01:29:03;1.90;99.90
15638;DHT22;26604;53.596;10.042;2023-12-07T01:31:31;1.90;99.90
15638;DHT22;26604;53.596;10.042;2023-12-07T01:33:58;1.90;99.90
15638;DHT22;26604;53.596;10.042;2023-12-07T01:36:25;1.90;99.90
15638;DHT22;26604;53.596;10.042;2023-12-07T01:38:52;1.90;99.90
15638;DHT22;26604;53.596;10.042;2023-12-07T01:41:19;2.00;99.90
15638;DHT22;26604;53.596;10.042;2023-12-07T01:43:46;2.00;99.90
15638;DHT22;26604;53.596;10.042;2023-12-07T01:46:13;2.00;99.90
15638;DHT22;26604;53.596;10.042;2023-12-07T01:48:56;2.00;99.90
15638;DHT22;26604;53.596;10.042;2023-12-07T01:51:22;1.80;99.90
15638;DHT22;26604;53.596;10.042;2023-12-07T01:53:50;2.00;99.90
15638;DHT22;26604;53.596;10.042;2023-12-07T01:56:17;2.00;99.90
15638;DHT22;26604;53.596;10.042;2023-12-07T01:58:44;2.00;99.90
15638;DHT22;26604;53.596;10.042;2023-12-07T02:01:15;2.00;99.90
15638;DHT22;26604;53.596;10.042;2023-12-07T02:03:42;2.00;99.90
15638;DHT22;26604;53.596;10.042;2023-12-07T02:06:10;2.00;99.90
15638;DHT22;26604;53.596;10.042;2023-12-07T02:08:38;2.00;99.90
15638;DHT22;26604;53.596;10.042;2023-12-07T02:11:07;2.00;99.90
15638;DHT22;26604;53.596;10.042;2023-12-07T02:13:35;2.00;99.90
15638;DHT22;26604;53.596;10.042;2023-12-07T02:16:05;2.00;99.90
15638;DHT22;26604;53.596;10.042;2023-12-07T02:18:38;2.00;99.90
15638;DHT22;26604;53.596;10.042;2023-12-07T02:21:13;2.00;99.90
15638;DHT22;26604;53.596;10.042;2023-12-07T02:23:42;2.00;99.90
15638;DHT22;26604;53.596;10.042;2023-12-07T02:26:10;2.00;99.90
15638;DHT22;26604;53.596;10.042;2023-12-07T02:28:42;2.00;99.90
15638;DHT22;26604;53.596;10.042;2023-12-07T02:31:09;3.10;99.90
15638;DHT22;26604;53.596;10.042;2023-12-07T02:33:36;2.10;99.90
15638;DHT22;26604;53.596;10.042;2023-12-07T02:36:04;2.00;99.90
15638;DHT22;26604;53.596;10.042;2023-12-07T02:38:32;2.10;99.90
15638;DHT22;26604;53.596;10.042;2023-12-07T02:40:59;2.10;99.90
15638;DHT22;26604;53.596;10.042;2023-12-07T02:43:27;2.10;99.90
15638;DHT22;26604;53.596;10.042;2023-12-07T02:45:56;2.10;99.90
15638;DHT22;26604;53.596;10.042;2023-12-07T02:48:24;2.10;99.90
15638;DHT22;26604;53.596;10.042;2023-12-07T02:50:51;2.10;99.90
15638;DHT22;26604;53.596;10.042;2023-12-07T02:53:18;2.10;99.90
15638;DHT22;26604;53.596;10.042;2023-12-07T02:55:45;2.10;99.90
15638;DHT22;26604;53.596;10.042;2023-12-07T02:58:12;2.10;99.90
15638;DHT22;26604;53.596;10.042;2023-12-07T03:00:39;2.20;99.90
15638;DHT22;26604;53.596;10.042;2023-12-07T03:03:07;2.20;99.90
15638;DHT22;26604;53.596;10.042;2023-12-07T03:05:34;2.20;99.90
15638;DHT22;26604;53.596;10.042;2023-12-07T03:08:01;2.20;99.90
15638;DHT22;26604;53.596;10.042;2023-12-07T03:10:28;2.20;99.90
15638;DHT22;26604;53.596;10.042;2023-12-07T03:12:54;2.20;99.90
15638;DHT22;26604;53.596;10.042;2023-12-07T03:15:21;2.20;99.90
15638;DHT22;26604;53.596;10.042;2023-12-07T03:17:49;2.20;99.90
15638;DHT22;26604;53.596;10.042;2023-12-07T03:20:17;2.20;99.90
15638;DHT22;26604;53.596;10.042;2023-12-07T03:22:44;2.20;99.90
15638;DHT22;26604;53.596;10.042;2023-12-07T03:25:11;2.20;99.90
15638;DHT22;26604;53.596;10.042;2023-12-07T03:27:38;2.20;99.90
15638;DHT22;26604;53.596;10.042;2023-12-07T03:30:06;2.20;99.90
15638;DHT22;26604;53.596;10.042;2023-12-07T03:32:33;2.20;99.90
15638;DHT22;26604;53.596;10.042;2023-12-07T03:35:00;2.20;99.90
15638;DHT22;26604;53.596;10.042;2023-12-07T03:37:28;2.20;99.90
15638;DHT22;26604;53.596;10.042;2023-12-07T03:39:55;2.20;99.90
15638;DHT22;26604;53.596;10.042;2023-12-07T03:42:21;2.20;99.90
15638;DHT22;26604;53.596;10.042;2023-12-07T03:44:48;2.20;99.90
15638;DHT22;26604;53.596;10.042;2023-12-07T03:47:15;2.20;99.90
15638;DHT22;26604;53.596;10.042;2023-12-07T03:49:44;2.20;99.90
15638;DHT22;26604;53.596;10.042;2023-12-07T03:52:11;2.20;99.90
15638;DHT22;26604;53.596;10.042;2023-12-07T03:54:39;2.20;99.90
15638;DHT22;26604;53.596;10.042;2023-12-07T03:57:06;2.20;99.90
15638;DHT22;26604;53.596;10.042;2023-12-07T03:59:36;2.20;99.90
15638;DHT22;26604;53.596;10.042;2023-12-07T04:02:03;2.20;99.90
15638;DHT22;26604;53.596;10.042;2023-12-07T04:04:30;2.20;99.90
15638;DHT22;26604;53.596;10.042;2023-12-07T04:06:57;2.20;99.90
15638;DHT22;26604;53.596;10.042;2023-12-07T04:09:25;2.20;99.90
15638;DHT22;26604;53.596;10.042;2023-12-07T04:11:53;2.20;99.90
15638;DHT22;26604;53.596;10.042;2023-12-07T04:14:20;2.20;99.90
15638;DHT22;26604;53.596;10.042;2023-12-07T04:16:47;2.30;99.90
15638;DHT22;26604;53.596;10.042;2023-12-07T04:19:14;2.20;99.90
15638;DHT22;26604;53.596;10.042;2023-12-07T04:21:41;2.10;99.90
15638;DHT22;26604;53.596;10.042;2023-12-07T04:24:08;2.20;99.90
15638;DHT22;26604;53.596;10.042;2023-12-07T04:26:34;2.20;99.90
15638;DHT22;26604;53.596;10.042;2023-12-07T04:29:03;2.30;99.90
15638;DHT22;26604;53.596;10.042;2023-12-07T04:31:29;2.20;99.90
15638;DHT22;26604;53.596;10.042;2023-12-07T04:33:56;2.20;99.90
15638;DHT22;26604;53.596;10.042;2023-12-07T04:36:25;2.20;99.90
15638;DHT22;26604;53.596;10.042;2023-12-07T04:38:51;2.20;99.90
15638;DHT22;26604;53.596;10.042;2023-12-07T04:41:18;2.30;99.90
15638;DHT22;26604;53.596;10.042;2023-12-07T04:43:45;2.20;99.90
15638;DHT22;26604;53.596;10.042;2023-12-07T04:46:13;2.20;99.90
15638;DHT22;26604;53.596;10.042;2023-12-07T04:48:40;2.20;99.90
15638;DHT22;26604;53.596;10.042;2023-12-07T04:51:07;2.20;99.90
15638;DHT22;26604;53.596;10.042;2023-12-07T04:53:34;2.20;99.90
15638;DHT22;26604;53.596;10.042;2023-12-07T04:56:01;2.30;99.90
15638;DHT22;26604;53.596;10.042;2023-12-07T04:58:28;2.30;99.90
15638;DHT22;26604;53.596;10.042;2023-12-07T05:00:55;2.50;99.90
15638;DHT22;26604;53.596;10.042;2023-12-07T05:03:23;2.20;99.90
15638;DHT22;26604;53.596;10.042;2023-12-07T05:05:50;2.20;99.90
15638;DHT22;26604;53.596;10.042;2023-12-07T05:08:17;2.30;99.90
15638;DHT22;26604;53.596;10.042;2023-12-07T05:10:44;2.30;99.90
15638;DHT22;26604;53.596;10.042;2023-12-07T05:13:11;2.30;99.90
15638;DHT22;26604;53.596;10.042;2023-12-07T05:15:38;2.30;99.90
15638;DHT22;26604;53.596;10.042;2023-12-07T05:18:05;2.30;99.90
15638;DHT22;26604;53.596;10.042;2023-12-07T05:20:33;2.30;99.90
15638;DHT22;26604;53.596;10.042;2023-12-07T05:23:01;2.30;99.90
15638;DHT22;26604;53.596;10.042;2023-12-07T05:25:28;2.30;99.90
15638;DHT22;26604;53.596;10.042;2023-12-07T05:27:55;2.30;99.90
15638;DHT22;26604;53.596;10.042;2023-12-07T05:30:23;2.40;99.90
15638;DHT22;26604;53.596;10.042;2023-12-07T05:32:50;2.30;99.90
15638;DHT22;26604;53.596;10.042;2023-12-07T05:35:17;2.30;99.90
15638;DHT22;26604;53.596;10.042;2023-12-07T05:37:45;2.40;99.90
15638;DHT22;26604;53.596;10.042;2023-12-07T05:40:15;2.40;99.90
15638;DHT22;26604;53.596;10.042;2023-12-07T05:42:42;2.30;99.90
15638;DHT22;26604;53.596;10.042;2023-12-07T05:45:09;2.40;99.90
15638;DHT22;26604;53.596;10.042;2023-12-07T05:47:36;2.40;99.90
15638;DHT22;26604;53.596;10.042;2023-12-07T05:50:04;2.40;99.90
15638;DHT22;26604;53.596;10.042;2023-12-07T05:52:31;2.40;99.90
15638;DHT22;26604;53.596;10.042;2023-12-07T05:54:59;2.40;99.90
15638;DHT22;26604;53.596;10.042;2023-12-07T05:57:26;2.40;99.90
15638;DHT22;26604;53.596;10.042;2023-12-07T05:59:53;2.40;99.90
15638;DHT22;26604;53.596;10.042;2023-12-07T06:02:20;2.40;99.90
15638;DHT22;26604;53.596;10.042;2023-12-07T06:04:47;2.40;99.90
15638;DHT22;26604;53.596;10.042;2023-12-07T06:07:15;2.40;99.90
15638;DHT22;26604;53.596;10.042;2023-12-07T06:09:42;2.40;99.90
15638;DHT22;26604;53.596;10.042;2023-12-07T06:12:10;2.60;99.90
15638;DHT22;26604;53.596;10.042;2023-12-07T06:14:37;2.40;99.90
15638;DHT22;26604;53.596;10.042;2023-12-07T06:17:04;2.40;99.90
15638;DHT22;26604;53.596;10.042;2023-12-07T06:19:30;2.40;99.90
15638;DHT22;26604;53.596;10.042;2023-12-07T06:21:57;2.40;99.90
15638;DHT22;26604;53.596;10.042;2023-12-07T06:24:25;2.40;99.90
15638;DHT22;26604;53.596;10.042;2023-12-07T06:26:51;2.40;99.90
15638;DHT22;26604;53.596;10.042;2023-12-07T06:29:20;2.40;99.90
15638;DHT22;26604;53.596;10.042;2023-12-07T06:31:46;2.40;99.90
15638;DHT22;26604;53.596;10.042;2023-12-07T06:34:13;2.40;99.90
15638;DHT22;26604;53.596;10.042;2023-12-07T06:36:40;2.40;99.90
15638;DHT22;26604;53.596;10.042;2023-12-07T06:39:07;2.40;99.90
15638;DHT22;26604;53.596;10.042;2023-12-07T06:41:34;2.40;99.90
15638;DHT22;26604;53.596;10.042;2023-12-07T06:44:01;2.40;99.90
15638;DHT22;26604;53.596;10.042;2023-12-07T06:46:29;2.40;99.90
15638;DHT22;26604;53.596;10.042;2023-12-07T06:48:56;2.40;99.90
15638;DHT22;26604;53.596;10.042;2023-12-07T06:51:23;2.40;99.90
15638;DHT22;26604;53.596;10.042;2023-12-07T06:53:50;2.50;99.90
15638;DHT22;26604;53.596;10.042;2023-12-07T06:56:17;2.50;99.90
15638;DHT22;26604;53.596;10.042;2023-12-07T06:58:43;2.50;99.90
15638;DHT22;26604;53.596;10.042;2023-12-07T07:01:10;2.50;99.90
15638;DHT22;26604;53.596;10.042;2023-12-07T07:03:39;2.50;99.90
15638;DHT22;26604;53.596;10.042;2023-12-07T07:06:07;2.50;99.90
15638;DHT22;26604;53.596;10.042;2023-12-07T07:08:35;2.50;99.90
15638;DHT22;26604;53.596;10.042;2023-12-07T07:11:01;2.50;99.90
15638;DHT22;26604;53.596;10.042;2023-12-07T07:13:29;2.50;99.90
15638;DHT22;26604;53.596;10.042;2023-12-07T07:15:56;2.50;99.90
15638;DHT22;26604;53.596;10.042;2023-12-07T07:18:23;2.50;99.90
15638;DHT22;26604;53.596;10.042;2023-12-07T07:20:52;2.50;99.90
15638;DHT22;26604;53.596;10.042;2023-12-07T07:23:19;2.60;99.90
15638;DHT22;26604;53.596;10.042;2023-12-07T07:25:45;2.50;99.90
15638;DHT22;26604;53.596;10.042;2023-12-07T07:28:12;2.60;99.90
15638;DHT22;26604;53.596;10.042;2023-12-07T07:30:39;2.60;99.90
15638;DHT22;26604;53.596;10.042;2023-12-07T07:33:06;3.10;99.90
15638;DHT22;26604;53.596;10.042;2023-12-07T07:35:33;2.60;99.90
15638;DHT22;26604;53.596;10.042;2023-12-07T07:38:01;2.70;99.90
15638;DHT22;26604;53.596;10.042;2023-12-07T07:40:28;2.60;99.90
15638;DHT22;26604;53.596;10.042;2023-12-07T07:42:55;2.60;99.90
15638;DHT22;26604;53.596;10.042;2023-12-07T07:45:22;2.70;99.90
15638;DHT22;26604;53.596;10.042;2023-12-07T07:47:50;2.60;99.90
15638;DHT22;26604;53.596;10.042;2023-12-07T07:50:17;2.70;99.90
15638;DHT22;26604;53.596;10.042;2023-12-07T07:52:44;2.70;99.90
15638;DHT22;26604;53.596;10.042;2023-12-07T07:55:12;2.70;99.90
15638;DHT22;26604;53.596;10.042;2023-12-07T07:57:39;2.70;99.90
15638;DHT22;26604;53.596;10.042;2023-12-07T08:00:07;2.70;99.90
15638;DHT22;26604;53.596;10.042;2023-12-07T08:02:34;2.70;99.90
15638;DHT22;26604;53.596;10.042;2023-12-07T08:05:01;2.80;99.90
15638;DHT22;26604;53.596;10.042;2023-12-07T08:07:28;2.80;99.90
15638;DHT22;26604;53.596;10.042;2023-12-07T08:09:55;2.80;99.90
15638;DHT22;26604;53.596;10.042;2023-12-07T08:12:23;2.80;99.90
15638;DHT22;26604;53.596;10.042;2023-12-07T08:14:50;2.90;99.90
15638;DHT22;26604;53.596;10.042;2023-12-07T08:17:17;2.90;99.90
15638;DHT22;26604;53.596;10.042;2023-12-07T08:19:45;2.90;99.90
15638;DHT22;26604;53.596;10.042;2023-12-07T08:22:12;2.90;99.90
15638;DHT22;26604;53.596;10.042;2023-12-07T08:24:39;3.00;99.90
15638;DHT22;26604;53.596;10.042;2023-12-07T08:27:06;3.00;99.90
15638;DHT22;26604;53.596;10.042;2023-12-07T08:29:34;3.00;99.90
15638;DHT22;26604;53.596;10.042;2023-12-07T08:32:02;3.10;99.90
15638;DHT22;26604;53.596;10.042;2023-12-07T08:34:29;3.10;99.90
15638;DHT22;26604;53.596;10.042;2023-12-07T08:36:56;3.10;99.90
15638;DHT22;26604;53.596;10.042;2023-12-07T08:39:23;3.20;99.90
15638;DHT22;26604;53.596;10.042;2023-12-07T08:41:51;3.20;99.90
15638;DHT22;26604;53.596;10.042;2023-12-07T08:44:18;3.30;99.90
15638;DHT22;26604;53.596;10.042;2023-12-07T08:46:46;3.40;99.90
15638;DHT22;26604;53.596;10.042;2023-12-07T08:49:13;3.40;99.90
15638;DHT22;26604;53.596;10.042;2023-12-07T08:51:40;3.50;99.90
15638;DHT22;26604;53.596;10.042;2023-12-07T08:54:07;3.50;99.90
15638;DHT22;26604;53.596;10.042;2023-12-07T08:56:34;3.60;99.90
15638;DHT22;26604;53.596;10.042;2023-12-07T08:59:02;3.70;99.90
15638;DHT22;26604;53.596;10.042;2023-12-07T09:01:28;3.80;99.90
15638;DHT22;26604;53.596;10.042;2023-12-07T09:03:57;3.80;99.90
15638;DHT22;26604;53.596;10.042;2023-12-07T09:06:25;3.90;99.90
15638;DHT22;26604;53.596;10.042;2023-12-07T09:08:52;3.80;99.90
15638;DHT22;26604;53.596;10.042;2023-12-07T09:11:19;3.80;99.90
15638;DHT22;26604;53.596;10.042;2023-12-07T09:13:46;3.80;99.90
15638;DHT22;26604;53.596;10.042;2023-12-07T09:16:12;3.80;99.90
15638;DHT22;26604;53.596;10.042;2023-12-07T09:18:41;3.70;99.90
15638;DHT22;26604;53.596;10.042;2023-12-07T09:21:09;3.70;99.90
15638;DHT22;26604;53.596;10.042;2023-12-07T09:23:36;3.60;99.90
15638;DHT22;26604;53.596;10.042;2023-12-07T09:26:03;3.60;99.90
15638;DHT22;26604;53.596;10.042;2023-12-07T09:30:58;3.50;99.90
15638;DHT22;26604;53.596;10.042;2023-12-07T09:33:25;3.40;99.90
15638;DHT22;26604;53.596;10.042;2023-12-07T09:35:52;3.40;99.90
15638;DHT22;26604;53.596;10.042;2023-12-07T09:38:20;3.40;99.90
15638;DHT22;26604;53.596;10.042;2023-12-07T09:40:50;3.30;99.90
15638;DHT22;26604;53.596;10.042;2023-12-07T09:43:18;3.40;99.90
15638;DHT22;26604;53.596;10.042;2023-12-07T09:45:45;3.40;99.90
15638;DHT22;26604;53.596;10.042;2023-12-07T09:48:12;3.40;99.90
15638;DHT22;26604;53.596;10.042;2023-12-07T09:50:39;3.40;99.90
15638;DHT22;26604;53.596;10.042;2023-12-07T09:53:08;3.40;99.90
15638;DHT22;26604;53.596;10.042;2023-12-07T09:55:36;3.50;99.90
15638;DHT22;26604;53.596;10.042;2023-12-07T09:58:03;3.50;99.90
15638;DHT22;26604;53.596;10.042;2023-12-07T10:00:30;3.60;99.90
15638;DHT22;26604;53.596;10.042;2023-12-07T10:02:58;3.50;99.90
15638;DHT22;26604;53.596;10.042;2023-12-07T10:05:25;3.70;99.90
15638;DHT22;26604;53.596;10.042;2023-12-07T10:07:52;3.80;99.90
15638;DHT22;26604;53.596;10.042;2023-12-07T10:10:21;4.00;99.90
15638;DHT22;26604;53.596;10.042;2023-12-07T10:12:52;4.10;99.90
15638;DHT22;26604;53.596;10.042;2023-12-07T10:15:20;4.20;99.90
15638;DHT22;26604;53.596;10.042;2023-12-07T10:17:48;4.30;99.90
15638;DHT22;26604;53.596;10.042;2023-12-07T10:20:16;4.40;99.90
15638;DHT22;26604;53.596;10.042;2023-12-07T10:22:44;4.40;99.90
15638;DHT22;26604;53.596;10.042;2023-12-07T10:25:12;4.50;99.90
15638;DHT22;26604;53.596;10.042;2023-12-07T10:27:41;4.50;99.90
15638;DHT22;26604;53.596;10.042;2023-12-07T10:30:11;4.60;99.90
15638;DHT22;26604;53.596;10.042;2023-12-07T10:32:38;4.70;99.90
15638;DHT22;26604;53.596;10.042;2023-12-07T10:35:07;4.70;99.90
15638;DHT22;26604;53.596;10.042;2023-12-07T10:37:35;4.70;99.90
15638;DHT22;26604;53.596;10.042;2023-12-07T10:40:03;4.70;99.90
15638;DHT22;26604;53.596;10.042;2023-12-07T10:42:33;4.70;99.90
15638;DHT22;26604;53.596;10.042;2023-12-07T10:45:09;4.70;99.90
15638;DHT22;26604;53.596;10.042;2023-12-07T10:47:40;4.60;99.90
15638;DHT22;26604;53.596;10.042;2023-12-07T10:50:10;4.60;99.90
15638;DHT22;26604;53.596;10.042;2023-12-07T10:52:44;4.60;99.90
15638;DHT22;26604;53.596;10.042;2023-12-07T10:55:16;4.60;99.90
15638;DHT22;26604;53.596;10.042;2023-12-07T10:57:44;4.60;99.90
15638;DHT22;26604;53.596;10.042;2023-12-07T11:00:13;4.50;99.90
15638;DHT22;26604;53.596;10.042;2023-12-07T11:02:42;4.50;99.90
15638;DHT22;26604;53.596;10.042;2023-12-07T11:05:11;4.50;99.90
15638;DHT22;26604;53.596;10.042;2023-12-07T11:07:52;4.60;99.90
15638;DHT22;26604;53.596;10.042;2023-12-07T11:10:27;4.60;99.90
15638;DHT22;26604;53.596;10.042;2023-12-07T11:13:05;4.70;99.90
15638;DHT22;26604;53.596;10.042;2023-12-07T11:15:34;4.70;99.90
15638;DHT22;26604;53.596;10.042;2023-12-07T11:18:03;4.70;99.90
15638;DHT22;26604;53.596;10.042;2023-12-07T11:20:40;4.80;99.90
15638;DHT22;26604;53.596;10.042;2023-12-07T11:23:08;4.80;99.90
15638;DHT22;26604;53.596;10.042;2023-12-07T11:25:35;4.80;99.90
15638;DHT22;26604;53.596;10.042;2023-12-07T11:28:03;4.80;99.90
15638;DHT22;26604;53.596;10.042;2023-12-07T11:30:32;4.80;99.90
15638;DHT22;26604;53.596;10.042;2023-12-07T11:33:03;4.80;99.90
15638;DHT22;26604;53.596;10.042;2023-12-07T11:35:31;4.80;99.90
15638;DHT22;26604;53.596;10.042;2023-12-07T11:38:06;4.80;99.90
15638;DHT22;26604;53.596;10.042;2023-12-07T11:40:38;4.80;99.90
15638;DHT22;26604;53.596;10.042;2023-12-07T11:43:06;4.80;99.90
15638;DHT22;26604;53.596;10.042;2023-12-07T11:45:40;4.80;99.90
15638;DHT22;26604;53.596;10.042;2023-12-07T11:48:09;4.70;99.90
15638;DHT22;26604;53.596;10.042;2023-12-07T11:50:59;4.70;99.90
15638;DHT22;26604;53.596;10.042;2023-12-07T11:53:29;4.70;99.90
15638;DHT22;26604;53.596;10.042;2023-12-07T11:55:57;4.70;99.90
15638;DHT22;26604;53.596;10.042;2023-12-07T11:58:25;4.70;99.90
15638;DHT22;26604;53.596;10.042;2023-12-07T12:00:52;4.70;99.90
15638;DHT22;26604;53.596;10.042;2023-12-07T12:03:19;4.70;99.90
15638;DHT22;26604;53.596;10.042;2023-12-07T12:05:48;4.80;99.90
15638;DHT22;26604;53.596;10.042;2023-12-07T12:08:16;4.80;99.90
15638;DHT22;26604;53.596;10.042;2023-12-07T12:10:43;4.80;99.90
15638;DHT22;26604;53.596;10.042;2023-12-07T12:13:10;4.80;99.90
15638;DHT22;26604;53.596;10.042;2023-12-07T12:15:38;4.80;99.90
15638;DHT22;26604;53.596;10.042;2023-12-07T12:18:05;4.80;99.90
15638;DHT22;26604;53.596;10.042;2023-12-07T12:20:32;4.80;99.90
15638;DHT22;26604;53.596;10.042;2023-12-07T12:23:01;4.80;99.90
15638;DHT22;26604;53.596;10.042;2023-12-07T12:25:30;4.90;99.90
15638;DHT22;26604;53.596;10.042;2023-12-07T12:27:58;4.90;99.90
15638;DHT22;26604;53.596;10.042;2023-12-07T12:30:28;4.90;99.90
15638;DHT22;26604;53.596;10.042;2023-12-07T12:32:55;4.90;99.90
15638;DHT22;26604;53.596;10.042;2023-12-07T12:35:23;4.90;99.90
15638;DHT22;26604;53.596;10.042;2023-12-07T12:37:50;4.90;99.90
15638;DHT22;26604;53.596;10.042;2023-12-07T12:40:20;4.90;99.90
15638;DHT22;26604;53.596;10.042;2023-12-07T12:42:49;4.90;99.90
15638;DHT22;26604;53.596;10.042;2023-12-07T12:45:17;4.90;99.90
15638;DHT22;26604;53.596;10.042;2023-12-07T12:47:45;4.90;99.90
15638;DHT22;26604;53.596;10.042;2023-12-07T12:50:32;4.90;99.90
15638;DHT22;26604;53.596;10.042;2023-12-07T12:52:59;4.90;99.90
15638;DHT22;26604;53.596;10.042;2023-12-07T12:55:30;4.90;99.90
15638;DHT22;26604;53.596;10.042;2023-12-07T12:57:57;4.90;99.90
15638;DHT22;26604;53.596;10.042;2023-12-07T13:00:24;4.90;99.90
15638;DHT22;26604;53.596;10.042;2023-12-07T13:02:52;4.80;99.90
15638;DHT22;26604;53.596;10.042;2023-12-07T13:05:19;4.80;99.90
15638;DHT22;26604;53.596;10.042;2023-12-07T13:07:45;4.70;99.90
15638;DHT22;26604;53.596;10.042;2023-12-07T13:10:14;4.70;99.90
15638;DHT22;26604;53.596;10.042;2023-12-07T13:12:42;4.70;99.90
15638;DHT22;26604;53.596;10.042;2023-12-07T13:15:11;4.70;99.90
15638;DHT22;26604;53.596;10.042;2023-12-07T13:17:39;4.70;99.90
15638;DHT22;26604;53.596;10.042;2023-12-07T13:20:06;4.60;99.90
15638;DHT22;26604;53.596;10.042;2023-12-07T13:22:36;4.60;99.90
15638;DHT22;26604;53.596;10.042;2023-12-07T13:25:03;4.60;99.90
15638;DHT22;26604;53.596;10.042;2023-12-07T13:27:32;4.60;99.90
15638;DHT22;26604;53.596;10.042;2023-12-07T13:30:00;4.50;99.90
15638;DHT22;26604;53.596;10.042;2023-12-07T13:32:31;4.50;99.90
15638;DHT22;26604;53.596;10.042;2023-12-07T13:34:57;4.50;99.90
15638;DHT22;26604;53.596;10.042;2023-12-07T13:37:25;4.50;99.90
15638;DHT22;26604;53.596;10.042;2023-12-07T13:39:51;4.50;99.90
15638;DHT22;26604;53.596;10.042;2023-12-07T13:42:24;4.50;99.90
15638;DHT22;26604;53.596;10.042;2023-12-07T13:44:54;4.50;99.90
15638;DHT22;26604;53.596;10.042;2023-12-07T13:47:24;4.40;99.90
15638;DHT22;26604;53.596;10.042;2023-12-07T13:49:54;4.40;99.90
15638;DHT22;26604;53.596;10.042;2023-12-07T13:52:22;4.40;99.90
15638;DHT22;26604;53.596;10.042;2023-12-07T13:54:49;4.30;99.90
15638;DHT22;26604;53.596;10.042;2023-12-07T13:57:16;4.20;99.90
15638;DHT22;26604;53.596;10.042;2023-12-07T13:59:43;4.20;99.90
15638;DHT22;26604;53.596;10.042;2023-12-07T14:02:10;4.20;99.90
15638;DHT22;26604;53.596;10.042;2023-12-07T14:04:39;4.10;99.90
15638;DHT22;26604;53.596;10.042;2023-12-07T14:07:10;4.10;99.90
15638;DHT22;26604;53.596;10.042;2023-12-07T14:09:38;4.10;99.90
15638;DHT22;26604;53.596;10.042;2023-12-07T14:12:06;4.00;99.90
15638;DHT22;26604;53.596;10.042;2023-12-07T14:14:34;4.00;99.90
15638;DHT22;26604;53.596;10.042;2023-12-07T14:17:01;3.90;99.90
15638;DHT22;26604;53.596;10.042;2023-12-07T14:19:28;3.90;99.90
15638;DHT22;26604;53.596;10.042;2023-12-07T14:21:57;3.90;99.90
15638;DHT22;26604;53.596;10.042;2023-12-07T14:24:24;3.80;99.90
15638;DHT22;26604;53.596;10.042;2023-12-07T14:26:52;3.80;99.90
15638;DHT22;26604;53.596;10.042;2023-12-07T14:29:19;3.80;99.90
15638;DHT22;26604;53.596;10.042;2023-12-07T14:31:47;3.80;99.90
15638;DHT22;26604;53.596;10.042;2023-12-07T14:34:14;3.80;99.90
15638;DHT22;26604;53.596;10.042;2023-12-07T14:36:41;3.80;99.90
15638;DHT22;26604;53.596;10.042;2023-12-07T14:39:11;3.80;99.90
15638;DHT22;26604;53.596;10.042;2023-12-07T14:41:43;3.70;99.90
15638;DHT22;26604;53.596;10.042;2023-12-07T14:44:10;3.70;99.90
15638;DHT22;26604;53.596;10.042;2023-12-07T14:46:37;3.60;99.90
15638;DHT22;26604;53.596;10.042;2023-12-07T14:49:04;3.60;99.90
15638;DHT22;26604;53.596;10.042;2023-12-07T14:51:30;3.50;99.90
15638;DHT22;26604;53.596;10.042;2023-12-07T14:53:57;3.50;99.90
15638;DHT22;26604;53.596;10.042;2023-12-07T14:56:26;3.50;99.90
15638;DHT22;26604;53.596;10.042;2023-12-07T14:58:53;3.50;99.90
15638;DHT22;26604;53.596;10.042;2023-12-07T15:01:19;3.40;99.90
15638;DHT22;26604;53.596;10.042;2023-12-07T15:03:46;3.40;99.90
15638;DHT22;26604;53.596;10.042;2023-12-07T15:06:13;3.40;99.90
15638;DHT22;26604;53.596;10.042;2023-12-07T15:08:40;3.40;99.90
15638;DHT22;26604;53.596;10.042;2023-12-07T15:11:07;3.30;99.90
15638;DHT22;26604;53.596;10.042;2023-12-07T15:13:36;3.30;99.90
15638;DHT22;26604;53.596;10.042;2023-12-07T15:16:04;3.30;99.90
15638;DHT22;26604;53.596;10.042;2023-12-07T15:18:31;3.30;99.90
15638;DHT22;26604;53.596;10.042;2023-12-07T15:21:00;3.30;99.90
15638;DHT22;26604;53.596;10.042;2023-12-07T15:23:27;3.20;99.90
15638;DHT22;26604;53.596;10.042;2023-12-07T15:25:54;3.20;99.90
15638;DHT22;26604;53.596;10.042;2023-12-07T15:28:21;3.20;99.90
15638;DHT22;26604;53.596;10.042;2023-12-07T15:30:50;3.20;99.90
15638;DHT22;26604;53.596;10.042;2023-12-07T15:33:17;3.20;99.90
15638;DHT22;26604;53.596;10.042;2023-12-07T15:35:44;3.20;99.90